Time;durP1;ratioP1;P1;durP2;ratioP2;P2;SDS_P1;SDS_P2;PMS_P1;PMS_P2;Temp;Humidity;BMP_temperature;BMP_pressure;BME280_temperature;BME280_humidity;BME280_pressure;Samples;Min_cycle;Max_cycle;Signal;HPM_P1;HPM_P2
2023/01/09 00:00:07;;;;;;;;;;;10.50;99.90;10.90;98387.00;;;;343999;28;96840;-91
2023/01/09 00:00:20;;;;;;;;;;;10.50;99.90;10.90;98385.00;;;;347611;28;82417;-91
2023/01/09 00:00:31;;;;;;;;;;;10.50;99.90;10.90;98386.00;;;;343916;28;96346;-91
2023/01/09 00:00:43;;;;;;;;;;;10.50;99.90;10.80;98380.00;;;;346151;28;83500;-90
2023/01/09 00:00:55;;;;;;;;;;;10.50;99.90;10.80;98387.00;;;;345440;28;95291;-91
2023/01/09 00:01:16;;;;;;;;;;;10.50;99.90;10.80;98394.00;;;;346054;28;83485;-91
2023/01/09 00:01:30;;;;;;;;;;;10.40;99.90;10.80;98392.00;;;;345382;28;96596;-91
2023/01/09 00:01:44;;;;;;;;;;;10.40;99.90;10.80;98395.00;;;;346233;28;83536;-91
2023/01/09 00:01:56;;;;;;;;;;;10.40;99.90;10.80;98388.00;;;;345384;28;98021;-91
2023/01/09 00:02:08;;;;;;;;;;;10.40;99.90;10.80;98389.00;;;;347653;28;83421;-91
2023/01/09 00:02:19;;;;;;;;;;;10.40;99.90;10.80;98389.00;;;;346869;27;96437;-91
2023/01/09 00:02:31;;;;;;;;;;;10.40;99.90;10.80;98396.00;;;;347561;28;83402;-91
2023/01/09 00:02:44;;;;;;;;;;;10.40;99.90;10.80;98393.00;;;;345425;28;95590;-91
2023/01/09 00:02:56;;;;;;;;;;;10.40;99.90;10.80;98392.00;;;;348967;27;83348;-92
2023/01/09 00:03:08;;;;;;;;;;;10.40;99.90;10.80;98393.00;;;;344099;28;95836;-91
2023/01/09 00:03:19;;;;;;;;;;;10.40;99.90;10.90;98392.00;;;;345945;28;83319;-91
2023/01/09 00:03:31;;;;;;;;;;;10.40;99.90;10.90;98395.00;;;;346747;28;96054;-91
2023/01/09 00:03:43;;;;;;;;;;;10.40;99.90;10.90;98392.00;;;;347527;28;83499;-91
2023/01/09 00:03:55;;;;;;;;;;;10.40;99.90;10.80;98392.00;;;;345313;28;97282;-91
2023/01/09 00:04:07;;;;;;;;;;;10.40;99.90;10.80;98399.00;;;;346163;28;83416;-91
2023/01/09 00:04:19;;;;;;;;;;;10.40;99.90;10.80;98401.00;;;;345442;28;96756;-91
2023/01/09 00:04:30;;;;;;;;;;;10.40;99.90;10.80;98398.00;;;;346210;28;83201;-91
2023/01/09 00:04:42;;;;;;;;;;;10.40;99.90;10.80;98406.00;;;;348122;27;96453;-91
2023/01/09 00:04:54;;;;;;;;;;;10.40;99.90;10.80;98401.00;;;;349025;27;83469;-92
2023/01/09 00:05:07;;;;;;;;;;;10.40;99.90;10.80;98398.00;;;;346830;28;96656;-91
2023/01/09 00:05:19;;;;;;;;;;;10.40;99.90;10.80;98404.00;;;;349066;27;82436;-91
2023/01/09 00:05:30;;;;;;;;;;;10.40;99.90;10.80;98411.00;;;;346783;28;96964;-90
2023/01/09 00:05:42;;;;;;;;;;;10.40;99.90;10.70;98412.00;;;;346210;28;83326;-91
2023/01/09 00:05:54;;;;;;;;;;;10.40;99.90;10.70;98404.00;;;;348171;27;97631;-91
2023/01/09 00:06:06;;;;;;;;;;;10.30;99.90;10.70;98403.00;;;;346183;28;83345;-91
2023/01/09 00:06:18;;;;;;;;;;;10.30;99.90;10.70;98406.00;;;;348200;27;96174;-91
2023/01/09 00:06:29;;;;;;;;;;;10.30;99.90;10.70;98405.00;;;;349100;27;83340;-91
2023/01/09 00:06:42;;;;;;;;;;;10.30;99.90;10.70;98402.00;;;;345429;28;95573;-91
2023/01/09 00:06:54;;;;;;;;;;;10.30;99.90;10.80;98407.00;;;;348701;27;83457;-91
2023/01/09 00:07:06;;;;;;;;;;;10.30;99.90;10.80;98410.00;;;;346785;28;97756;-90
2023/01/09 00:07:18;;;;;;;;;;;10.30;99.90;10.80;98403.00;;;;344893;28;82506;-91
2023/01/09 00:07:30;;;;;;;;;;;10.30;99.90;10.80;98404.00;;;;346784;28;94139;-91
2023/01/09 00:07:41;;;;;;;;;;;10.30;99.90;10.70;98403.00;;;;347524;28;83576;-91
2023/01/09 00:07:53;;;;;;;;;;;10.30;99.90;10.70;98404.00;;;;346881;28;95054;-91
2023/01/09 00:08:05;;;;;;;;;;;10.30;99.90;10.80;98402.00;;;;347529;27;82491;-91
2023/01/09 00:08:18;;;;;;;;;;;10.30;99.90;10.80;98405.00;;;;346808;28;95898;-91
2023/01/09 00:08:29;;;;;;;;;;;10.30;99.90;10.80;98404.00;;;;343505;28;82527;-91
2023/01/09 00:08:41;;;;;;;;;;;10.30;99.90;10.80;98411.00;;;;344053;28;95916;-91
2023/01/09 00:08:53;;;;;;;;;;;10.30;99.90;10.80;98409.00;;;;347493;28;83422;-91
2023/01/09 00:09:05;;;;;;;;;;;10.30;99.90;10.80;98405.00;;;;345398;28;96231;-91
2023/01/09 00:09:16;;;;;;;;;;;10.30;99.90;10.70;98400.00;;;;346194;28;82458;-91
2023/01/09 00:09:28;;;;;;;;;;;10.30;99.90;10.80;98415.00;;;;345368;28;95030;-92
2023/01/09 00:09:40;;;;;;;;;;;10.30;99.90;10.80;98412.00;;;;346057;28;83406;-91
2023/01/09 00:09:52;;;;;;;;;;;10.30;99.90;10.80;98411.00;;;;346555;28;97975;-91
2023/01/09 00:10:05;;;;;;;;;;;10.30;99.90;10.80;98407.00;;;;346142;28;83378;-91
2023/01/09 00:10:16;;;;;;;;;;;10.30;99.90;10.80;98412.00;;;;343904;28;96300;-90
2023/01/09 00:10:28;;;;;;;;;;;10.30;99.90;10.80;98412.00;;;;346150;28;83392;-91
2023/01/09 00:10:40;;;;;;;;;;;10.30;99.90;10.80;98417.00;;;;343989;28;96608;-91
2023/01/09 00:10:52;;;;;;;;;;;10.30;99.90;10.80;98414.00;;;;347581;28;82566;-92
2023/01/09 00:11:03;;;;;;;;;;;10.30;99.90;10.70;98407.00;;;;345513;28;95472;-91
2023/01/09 00:11:15;;;;;;;;;;;10.30;99.90;10.80;98412.00;;;;343541;28;83492;-91
2023/01/09 00:11:27;;;;;;;;;;;10.30;99.90;10.80;98408.00;;;;344002;28;94987;-91
2023/01/09 00:11:39;;;;;;;;;;;10.30;99.90;10.70;98419.00;;;;344806;28;83378;-91
2023/01/09 00:11:51;;;;;;;;;;;10.30;99.90;10.70;98423.00;;;;347763;27;97726;-92
2023/01/09 00:12:03;;;;;;;;;;;10.30;99.90;10.70;98417.00;;;;348716;27;82691;-91
2023/01/09 00:12:14;;;;;;;;;;;10.30;99.90;10.70;98423.00;;;;348297;27;93127;-91
2023/01/09 00:12:27;;;;;;;;;;;10.30;99.90;10.70;98420.00;;;;348944;27;82558;-91
2023/01/09 00:12:39;;;;;;;;;;;10.30;99.90;10.60;98419.00;;;;345401;28;96956;-91
2023/01/09 00:12:50;;;;;;;;;;;10.30;99.90;10.70;98413.00;;;;347637;27;82567;-91
2023/01/09 00:13:02;;;;;;;;;;;10.30;99.90;10.70;98421.00;;;;345404;28;95378;-91
2023/01/09 00:13:14;;;;;;;;;;;10.30;99.90;10.70;98417.00;;;;343522;28;83348;-91
2023/01/09 00:13:26;;;;;;;;;;;10.20;99.90;10.70;98422.00;;;;343681;28;96296;-91
2023/01/09 00:13:37;;;;;;;;;;;10.30;99.90;10.70;98419.00;;;;346246;28;82458;-92
2023/01/09 00:13:49;;;;;;;;;;;10.30;99.90;10.60;98426.00;;;;346714;28;97344;-91
2023/01/09 00:14:01;;;;;;;;;;;10.20;99.90;10.60;98426.00;;;;344854;28;82399;-91
2023/01/09 00:14:16;;;;;;;;;;;10.20;99.90;10.60;98416.00;;;;345367;28;96328;-91
2023/01/09 00:14:28;;;;;;;;;;;10.20;99.90;10.70;98427.00;;;;348834;27;82649;-91
2023/01/09 00:14:40;;;;;;;;;;;10.20;99.90;10.70;98419.00;;;;345425;28;95341;-91
2023/01/09 00:14:51;;;;;;;;;;;10.20;99.90;10.70;98425.00;;;;346067;28;83381;-91
2023/01/09 00:15:04;;;;;;;;;;;10.20;99.90;10.70;98421.00;;;;346721;28;96527;-91
2023/01/09 00:15:16;;;;;;;;;;;10.20;99.90;10.60;98426.00;;;;349001;27;83316;-91
2023/01/09 00:15:28;;;;;;;;;;;10.20;99.90;10.70;98429.00;;;;346745;28;94872;-91
2023/01/09 00:15:40;;;;;;;;;;;10.20;99.90;10.60;98428.00;;;;347477;28;83454;-91
2023/01/09 00:15:51;;;;;;;;;;;10.20;99.90;10.70;98426.00;;;;348099;27;97501;-91
2023/01/09 00:16:04;;;;;;;;;;;10.20;99.90;10.70;98427.00;;;;347574;28;82595;-91
2023/01/09 00:16:16;;;;;;;;;;;10.20;99.90;10.80;98427.00;;;;345412;28;96564;-92
2023/01/09 00:16:28;;;;;;;;;;;10.20;99.90;10.70;98430.00;;;;347711;28;82464;-91
2023/01/09 00:16:40;;;;;;;;;;;10.20;99.90;10.80;98430.00;;;;346824;28;96867;-90
2023/01/09 00:16:53;;;;;;;;;;;10.20;99.90;10.80;98441.00;;;;348982;27;83464;-91
2023/01/09 00:17:05;;;;;;;;;;;10.20;99.90;10.80;98438.00;;;;345265;28;94236;-92
2023/01/09 00:17:17;;;;;;;;;;;10.20;99.90;10.70;98435.00;;;;346506;28;83476;-93
2023/01/09 00:17:29;;;;;;;;;;;10.20;99.90;10.70;98428.00;;;;345942;28;96931;-91
2023/01/09 00:17:40;;;;;;;;;;;10.20;99.90;10.70;98434.00;;;;347005;28;82483;-92
2023/01/09 00:17:52;;;;;;;;;;;10.20;99.90;10.70;98434.00;;;;346215;28;94531;-90
2023/01/09 00:18:04;;;;;;;;;;;10.20;99.90;10.80;98438.00;;;;346873;28;82557;-91
2023/01/09 00:18:16;;;;;;;;;;;10.20;99.90;10.80;98430.00;;;;344639;28;94833;-92
2023/01/09 00:18:27;;;;;;;;;;;10.20;99.90;10.70;98436.00;;;;348285;28;83540;-91
2023/01/09 00:18:39;;;;;;;;;;;10.20;99.90;10.70;98440.00;;;;346079;28;95720;-91
2023/01/09 00:18:52;;;;;;;;;;;10.20;99.90;10.70;98436.00;;;;345137;28;82483;-91
2023/01/09 00:19:03;;;;;;;;;;;10.20;99.90;10.70;98443.00;;;;347211;28;96880;-91
2023/01/09 00:19:15;;;;;;;;;;;10.20;99.90;10.70;98441.00;;;;345433;28;82474;-92
2023/01/09 00:19:27;;;;;;;;;;;10.20;99.90;10.70;98445.00;;;;347328;28;96923;-92
2023/01/09 00:19:39;;;;;;;;;;;10.20;99.90;10.70;98438.00;;;;347876;28;83495;-91
2023/01/09 00:19:50;;;;;;;;;;;10.20;99.90;10.60;98443.00;;;;345734;28;95081;-92
2023/01/09 00:20:05;;;;;;;;;;;10.20;99.90;10.80;98442.00;;;;346600;28;82498;-91
2023/01/09 00:20:17;;;;;;;;;;;10.20;99.90;10.70;98442.00;;;;347089;27;96534;-92
2023/01/09 00:20:29;;;;;;;;;;;10.20;99.90;10.70;98443.00;;;;347558;28;83371;-91
2023/01/09 00:20:40;;;;;;;;;;;10.30;99.90;10.70;98446.00;;;;345153;28;97195;-91
2023/01/09 00:20:52;;;;;;;;;;;10.20;99.90;10.70;98442.00;;;;344859;28;83422;-91
2023/01/09 00:21:05;;;;;;;;;;;10.20;99.90;10.70;98446.00;;;;346838;28;96638;-91
2023/01/09 00:21:17;;;;;;;;;;;10.20;99.90;10.70;98448.00;;;;346286;28;82476;-91
2023/01/09 00:21:29;;;;;;;;;;;10.20;99.90;10.70;98442.00;;;;345468;28;96281;-91
2023/01/09 00:21:41;;;;;;;;;;;10.20;99.90;10.70;98454.00;;;;347481;27;83444;-91
2023/01/09 00:21:53;;;;;;;;;;;10.20;99.90;10.70;98451.00;;;;346784;28;97832;-91
2023/01/09 00:22:05;;;;;;;;;;;10.20;99.90;10.70;98459.00;;;;347615;28;83294;-91
2023/01/09 00:22:17;;;;;;;;;;;10.20;99.90;10.70;98447.00;;;;346805;28;97011;-91
2023/01/09 00:22:29;;;;;;;;;;;10.20;99.90;10.70;98459.00;;;;347693;28;82506;-91
2023/01/09 00:22:41;;;;;;;;;;;10.20;99.90;10.70;98461.00;;;;346521;28;95128;-91
2023/01/09 00:22:53;;;;;;;;;;;10.30;99.90;10.70;98461.00;;;;347583;27;82547;-91
2023/01/09 00:23:05;;;;;;;;;;;10.20;99.90;10.60;98461.00;;;;346858;28;96742;-91
2023/01/09 00:23:17;;;;;;;;;;;10.20;99.90;10.70;98456.00;;;;346353;28;82502;-92
2023/01/09 00:23:28;;;;;;;;;;;10.20;99.90;10.70;98464.00;;;;346668;28;96294;-91
2023/01/09 00:23:40;;;;;;;;;;;10.20;99.90;10.70;98464.00;;;;347572;28;82539;-91
2023/01/09 00:23:52;;;;;;;;;;;10.20;99.90;10.70;98465.00;;;;346735;28;96927;-91
2023/01/09 00:24:04;;;;;;;;;;;10.20;99.90;10.70;98466.00;;;;347517;28;83529;-91
2023/01/09 00:24:16;;;;;;;;;;;10.30;99.90;10.70;98472.00;;;;342659;28;96287;-91
2023/01/09 00:24:28;;;;;;;;;;;10.20;99.90;10.60;98453.00;;;;347348;28;83441;-91
2023/01/09 00:24:40;;;;;;;;;;;10.20;99.90;10.60;98466.00;;;;346675;28;93065;-91
2023/01/09 00:24:52;;;;;;;;;;;10.20;99.90;10.60;98462.00;;;;347517;28;83500;-92
2023/01/09 00:25:04;;;;;;;;;;;10.20;99.90;10.70;98465.00;;;;346767;28;96574;-91
2023/01/09 00:25:16;;;;;;;;;;;10.20;99.90;10.60;98471.00;;;;347630;28;83363;-91
2023/01/09 00:25:28;;;;;;;;;;;10.30;99.90;10.60;98460.00;;;;345394;28;95545;-91
2023/01/09 00:25:40;;;;;;;;;;;10.20;99.90;10.60;98462.00;;;;346184;28;82466;-91
2023/01/09 00:26:07;;;;;;;;;;;10.20;99.90;10.60;98462.00;;;;343931;28;97255;-92
2023/01/09 00:26:19;;;;;;;;;;;10.20;99.90;10.60;98466.00;;;;346130;28;82647;-91
2023/01/09 00:26:30;;;;;;;;;;;10.20;99.90;10.60;98461.00;;;;345231;28;94524;-91
2023/01/09 00:26:42;;;;;;;;;;;10.20;99.90;10.60;98460.00;;;;346293;28;82384;-92
2023/01/09 00:26:54;;;;;;;;;;;10.20;99.90;10.60;98462.00;;;;346703;28;96243;-91
2023/01/09 00:27:05;;;;;;;;;;;10.20;99.90;10.60;98471.00;;;;347628;28;83548;-91
2023/01/09 00:27:17;;;;;;;;;;;10.20;99.90;10.60;98461.00;;;;345428;28;94985;-91
2023/01/09 00:27:31;;;;;;;;;;;10.20;99.90;10.60;98468.00;;;;347562;27;83437;-91
2023/01/09 00:27:43;;;;;;;;;;;10.20;99.90;10.60;98479.00;;;;345521;28;93984;-91
2023/01/09 00:27:54;;;;;;;;;;;10.20;99.90;10.60;98469.00;;;;345915;28;82498;-91
2023/01/09 00:28:06;;;;;;;;;;;10.20;99.90;10.60;98466.00;;;;346672;28;96313;-91
2023/01/09 00:28:18;;;;;;;;;;;10.20;99.90;10.60;98469.00;;;;346199;28;82350;-91
2023/01/09 00:28:30;;;;;;;;;;;10.20;99.90;10.60;98474.00;;;;345441;28;95594;-91
2023/01/09 00:28:42;;;;;;;;;;;10.20;99.90;10.50;98461.00;;;;347675;28;83448;-91
2023/01/09 00:28:54;;;;;;;;;;;10.20;99.90;10.60;98469.00;;;;346810;28;95159;-91
2023/01/09 00:29:05;;;;;;;;;;;10.20;99.90;10.60;98467.00;;;;347641;28;83429;-91
2023/01/09 00:29:17;;;;;;;;;;;10.20;99.90;10.60;98466.00;;;;346779;28;96213;-92
2023/01/09 00:29:29;;;;;;;;;;;10.20;99.90;10.60;98457.00;;;;347463;28;83473;-91
2023/01/09 00:29:43;;;;;;;;;;;10.20;99.90;10.60;98479.00;;;;346731;28;96426;-92
2023/01/09 00:29:56;;;;;;;;;;;10.10;99.90;10.50;98469.00;;;;346214;28;82503;-91
2023/01/09 00:30:09;;;;;;;;;;;10.20;99.90;10.50;98470.00;;;;346596;28;97476;-91
2023/01/09 00:30:20;;;;;;;;;;;10.20;99.90;10.60;98467.00;;;;347387;28;82632;-92
2023/01/09 00:30:32;;;;;;;;;;;10.20;99.90;10.60;98460.00;;;;346576;28;96642;-90
2023/01/09 00:30:44;;;;;;;;;;;10.20;99.90;10.60;98463.00;;;;347612;28;83392;-91
2023/01/09 00:30:57;;;;;;;;;;;10.20;99.90;10.60;98462.00;;;;345414;28;95384;-92
2023/01/09 00:31:09;;;;;;;;;;;10.20;99.90;10.60;98463.00;;;;346217;28;83502;-91
2023/01/09 00:31:21;;;;;;;;;;;10.20;99.90;10.60;98464.00;;;;346656;28;96793;-91
2023/01/09 00:31:32;;;;;;;;;;;10.20;99.90;10.60;98456.00;;;;347474;27;83441;-91
2023/01/09 00:31:44;;;;;;;;;;;10.10;99.90;10.60;98458.00;;;;346786;28;95478;-91
2023/01/09 00:31:56;;;;;;;;;;;10.10;99.90;10.60;98457.00;;;;344835;28;82555;-91
2023/01/09 00:32:09;;;;;;;;;;;10.10;99.90;10.60;98451.00;;;;346807;28;96298;-91
2023/01/09 00:32:20;;;;;;;;;;;10.10;99.90;10.60;98462.00;;;;347492;28;83910;-91
2023/01/09 00:32:32;;;;;;;;;;;10.20;99.90;10.60;98458.00;;;;345429;28;96807;-91
2023/01/09 00:32:44;;;;;;;;;;;10.20;99.90;10.60;98464.00;;;;346207;28;82539;-91
2023/01/09 00:32:56;;;;;;;;;;;10.10;99.90;10.60;98462.00;;;;345521;28;94831;-91
2023/01/09 00:33:09;;;;;;;;;;;10.10;99.90;10.50;98464.00;;;;346192;28;83545;-91
2023/01/09 00:33:23;;;;;;;;;;;10.10;99.90;10.50;98468.00;;;;346552;28;96733;-91
2023/01/09 00:33:47;;;;;;;;;;;10.10;99.90;10.50;98475.00;;;;347317;28;82540;-91
2023/01/09 00:34:04;;;;;;;;;;;10.10;99.90;10.50;98476.00;;;;346359;28;96367;-91
2023/01/09 00:34:16;;;;;;;;;;;10.10;99.90;10.50;98488.00;;;;348955;27;83388;-91
2023/01/09 00:34:28;;;;;;;;;;;10.10;99.90;10.50;98478.00;;;;343980;28;98371;-91
2023/01/09 00:34:41;;;;;;;;;;;10.10;99.90;10.50;98481.00;;;;346149;28;83516;-91
2023/01/09 00:34:54;;;;;;;;;;;10.10;99.90;10.50;98486.00;;;;346696;27;95593;-91
2023/01/09 00:35:06;;;;;;;;;;;10.10;99.90;10.50;98479.00;;;;346107;28;83366;-91
2023/01/09 00:35:18;;;;;;;;;;;10.10;99.90;10.50;98481.00;;;;345423;28;96325;-91
2023/01/09 00:35:30;;;;;;;;;;;10.10;99.90;10.50;98476.00;;;;346176;28;83278;-91
2023/01/09 00:35:41;;;;;;;;;;;10.10;99.90;10.60;98477.00;;;;346761;28;96401;-91
2023/01/09 00:35:53;;;;;;;;;;;10.10;99.90;10.60;98480.00;;;;347574;28;82430;-91
2023/01/09 00:36:05;;;;;;;;;;;10.10;99.90;10.60;98477.00;;;;348114;27;96523;-91
2023/01/09 00:36:17;;;;;;;;;;;10.10;99.90;10.60;98482.00;;;;346291;28;82502;-91
2023/01/09 00:36:29;;;;;;;;;;;10.10;99.90;10.60;98483.00;;;;348206;27;97328;-91
2023/01/09 00:36:41;;;;;;;;;;;10.10;99.90;10.60;98487.00;;;;347639;28;83125;-91
2023/01/09 00:36:55;;;;;;;;;;;10.10;99.90;10.60;98482.00;;;;345352;28;96721;-91
2023/01/09 00:37:10;;;;;;;;;;;10.10;99.90;10.60;98478.00;;;;346148;28;83251;-91
2023/01/09 00:37:22;;;;;;;;;;;10.10;99.90;10.60;98477.00;;;;345352;28;96642;-91
2023/01/09 00:37:34;;;;;;;;;;;10.10;99.90;10.60;98477.00;;;;346089;28;83882;-91
2023/01/09 00:37:46;;;;;;;;;;;10.10;99.90;10.60;98475.00;;;;345266;28;95692;-91
2023/01/09 00:37:57;;;;;;;;;;;10.10;99.90;10.60;98468.00;;;;347600;28;83375;-91
2023/01/09 00:38:09;;;;;;;;;;;10.10;99.90;10.70;98465.00;;;;345337;28;94883;-92
2023/01/09 00:38:21;;;;;;;;;;;10.10;99.90;10.70;98473.00;;;;346194;28;83375;-91
2023/01/09 00:38:33;;;;;;;;;;;10.10;99.90;10.70;98468.00;;;;345254;28;97745;-92
2023/01/09 00:38:44;;;;;;;;;;;10.10;99.90;10.60;98477.00;;;;346135;28;82485;-91
2023/01/09 00:38:56;;;;;;;;;;;10.10;99.90;10.60;98472.00;;;;346723;27;96886;-92
2023/01/09 00:39:08;;;;;;;;;;;10.10;99.90;10.60;98478.00;;;;344845;28;82312;-92
2023/01/09 00:39:21;;;;;;;;;;;10.10;99.90;10.70;98474.00;;;;348245;27;96926;-92
2023/01/09 00:39:33;;;;;;;;;;;10.10;99.90;10.60;98474.00;;;;348923;27;82541;-92
2023/01/09 00:39:44;;;;;;;;;;;10.10;99.90;10.70;98483.00;;;;346728;28;96567;-92
2023/01/09 00:39:56;;;;;;;;;;;10.20;99.90;10.70;98475.00;;;;349061;27;83428;-92
2023/01/09 00:40:09;;;;;;;;;;;10.10;99.90;10.70;98473.00;;;;343949;28;96982;-91
2023/01/09 00:40:20;;;;;;;;;;;10.10;99.90;10.70;98475.00;;;;344696;28;83894;-92
2023/01/09 00:40:32;;;;;;;;;;;10.20;99.90;10.60;98472.00;;;;346814;28;97554;-92
2023/01/09 00:40:44;;;;;;;;;;;10.10;99.90;10.70;98473.00;;;;346136;28;83452;-92
2023/01/09 00:40:56;;;;;;;;;;;10.20;99.90;10.60;98476.00;;;;345275;28;97520;-91
2023/01/09 00:41:11;;;;;;;;;;;10.20;99.90;10.70;98477.00;;;;347640;28;83096;-91
2023/01/09 00:41:29;;;;;;;;;;;10.20;99.90;10.60;98490.00;;;;348116;27;95474;-91
2023/01/09 00:41:43;;;;;;;;;;;10.20;99.90;10.60;98479.00;;;;347625;28;83123;-92
2023/01/09 00:41:55;;;;;;;;;;;10.20;99.90;10.70;98484.00;;;;348368;27;94874;-91
2023/01/09 00:42:12;;;;;;;;;;;10.20;99.90;10.70;98485.00;;;;346276;28;82501;-91
2023/01/09 00:42:25;;;;;;;;;;;10.20;99.90;10.70;98479.00;;;;347056;28;95997;-92
2023/01/09 00:42:37;;;;;;;;;;;10.20;99.90;10.60;98477.00;;;;349053;27;82468;-92
2023/01/09 00:42:51;;;;;;;;;;;10.20;99.90;10.60;98476.00;;;;345408;28;97935;-92
2023/01/09 00:43:04;;;;;;;;;;;10.20;99.90;10.60;98485.00;;;;347763;28;82440;-91
2023/01/09 00:43:16;;;;;;;;;;;10.20;99.90;10.60;98478.00;;;;345669;28;95012;-91
2023/01/09 00:43:31;;;;;;;;;;;10.20;99.90;10.60;98480.00;;;;347748;28;83505;-91
2023/01/09 00:43:45;;;;;;;;;;;10.20;99.90;10.60;98490.00;;;;348530;27;92712;-91
2023/01/09 00:44:01;;;;;;;;;;;10.20;99.90;10.60;98480.00;;;;347655;28;82517;-91
2023/01/09 00:44:24;;;;;;;;;;;10.20;99.90;10.60;98482.00;;;;346968;27;92686;-91
2023/01/09 00:44:42;;;;;;;;;;;10.20;99.90;10.60;98491.00;;;;345139;28;83352;-91
2023/01/09 00:44:58;;;;;;;;;;;10.20;99.90;10.60;98484.00;;;;345578;28;96868;-92
2023/01/09 00:45:17;;;;;;;;;;;10.20;99.90;10.60;98488.00;;;;346385;28;83382;-91
2023/01/09 00:45:29;;;;;;;;;;;10.20;99.90;10.60;98494.00;;;;345480;28;97428;-91
2023/01/09 00:45:41;;;;;;;;;;;10.20;99.90;10.60;98493.00;;;;344969;28;83434;-91
2023/01/09 00:45:52;;;;;;;;;;;10.20;99.90;10.60;98481.00;;;;345640;28;96673;-91
2023/01/09 00:46:04;;;;;;;;;;;10.20;99.90;10.60;98481.00;;;;347699;27;82468;-91
2023/01/09 00:46:17;;;;;;;;;;;10.20;99.90;10.60;98484.00;;;;346716;28;96010;-91
2023/01/09 00:46:30;;;;;;;;;;;10.20;99.90;10.60;98491.00;;;;344831;28;82617;-92
2023/01/09 00:46:44;;;;;;;;;;;10.20;99.90;10.60;98487.00;;;;348317;27;93829;-92
2023/01/09 00:46:59;;;;;;;;;;;10.20;99.90;10.60;98502.00;;;;347741;27;83471;-91
2023/01/09 00:47:24;;;;;;;;;;;10.20;99.90;10.60;98496.00;;;;347082;28;95185;-91
2023/01/09 00:47:38;;;;;;;;;;;10.10;99.90;10.60;98491.00;;;;347491;28;83408;-91
2023/01/09 00:47:50;;;;;;;;;;;10.10;99.90;10.60;98491.00;;;;345425;28;96428;-91
2023/01/09 00:48:13;;;;;;;;;;;10.10;99.90;10.60;98497.00;;;;350352;27;83472;-91
2023/01/09 00:48:26;;;;;;;;;;;10.10;99.90;10.60;98491.00;;;;346748;28;91968;-91
2023/01/09 00:48:38;;;;;;;;;;;10.10;99.90;10.50;98489.00;;;;346094;28;83408;-92
2023/01/09 00:48:49;;;;;;;;;;;10.10;99.90;10.60;98480.00;;;;346755;28;96637;-91
2023/01/09 00:49:01;;;;;;;;;;;10.10;99.90;10.60;98485.00;;;;347602;28;82549;-91
2023/01/09 00:49:14;;;;;;;;;;;10.10;99.90;10.60;98483.00;;;;347999;27;96848;-91
2023/01/09 00:49:31;;;;;;;;;;;10.10;99.90;10.50;98494.00;;;;349027;27;83423;-91
2023/01/09 00:49:43;;;;;;;;;;;10.10;99.90;10.60;98494.00;;;;346711;28;95383;-92
2023/01/09 00:49:55;;;;;;;;;;;10.10;99.90;10.60;98493.00;;;;347702;28;82324;-91
2023/01/09 00:50:11;;;;;;;;;;;10.10;99.90;10.60;98497.00;;;;346664;27;97370;-91
2023/01/09 00:50:25;;;;;;;;;;;10.10;99.90;10.60;98499.00;;;;348897;27;83537;-91
2023/01/09 00:50:37;;;;;;;;;;;10.10;99.90;10.60;98501.00;;;;348205;27;95588;-91
2023/01/09 00:50:49;;;;;;;;;;;10.10;99.90;10.60;98500.00;;;;346129;28;83475;-91
2023/01/09 00:51:01;;;;;;;;;;;10.10;99.90;10.60;98500.00;;;;343977;28;96645;-91
2023/01/09 00:51:12;;;;;;;;;;;10.10;99.90;10.60;98506.00;;;;346227;28;82494;-91
2023/01/09 00:51:24;;;;;;;;;;;10.10;99.90;10.70;98504.00;;;;345354;28;95377;-91
2023/01/09 00:51:36;;;;;;;;;;;10.10;99.90;10.60;98501.00;;;;346242;28;83311;-91
2023/01/09 00:51:48;;;;;;;;;;;10.10;99.90;10.60;98501.00;;;;344025;28;96529;-91
2023/01/09 00:52:00;;;;;;;;;;;10.10;99.90;10.60;98513.00;;;;346205;28;83353;-91
2023/01/09 00:52:12;;;;;;;;;;;10.10;99.90;10.50;98505.00;;;;345316;28;95921;-91
2023/01/09 00:52:24;;;;;;;;;;;10.10;99.90;10.60;98506.00;;;;345936;28;82498;-91
2023/01/09 00:52:36;;;;;;;;;;;10.10;99.90;10.60;98506.00;;;;345437;28;96448;-91
2023/01/09 00:52:49;;;;;;;;;;;10.10;99.90;10.60;98505.00;;;;348884;27;83544;-91
2023/01/09 00:53:07;;;;;;;;;;;10.10;99.90;10.50;98508.00;;;;346662;28;96753;-91
2023/01/09 00:53:22;;;;;;;;;;;10.10;99.90;10.50;98506.00;;;;344832;28;82400;-91
2023/01/09 00:53:35;;;;;;;;;;;10.10;99.90;10.50;98510.00;;;;345323;28;96395;-91
2023/01/09 00:53:46;;;;;;;;;;;10.10;99.90;10.50;98504.00;;;;347605;28;83347;-92
2023/01/09 00:53:58;;;;;;;;;;;10.10;99.90;10.50;98515.00;;;;346722;27;94676;-90
2023/01/09 00:54:10;;;;;;;;;;;10.10;99.90;10.50;98504.00;;;;349016;27;83291;-91
2023/01/09 00:54:22;;;;;;;;;;;10.10;99.90;10.60;98512.00;;;;346648;28;97563;-91
2023/01/09 00:54:34;;;;;;;;;;;10.10;99.90;10.60;98517.00;;;;343422;28;82471;-90
2023/01/09 00:54:46;;;;;;;;;;;10.10;99.90;10.50;98510.00;;;;345240;28;94908;-92
2023/01/09 00:54:58;;;;;;;;;;;10.10;99.90;10.50;98513.00;;;;347568;27;82520;-91
2023/01/09 00:55:09;;;;;;;;;;;10.10;99.90;10.50;98520.00;;;;344006;28;96638;-91
2023/01/09 00:55:21;;;;;;;;;;;10.10;99.90;10.50;98507.00;;;;347531;28;83167;-91
2023/01/09 00:55:34;;;;;;;;;;;10.10;99.90;10.50;98513.00;;;;345337;28;96904;-92
2023/01/09 00:55:46;;;;;;;;;;;10.10;99.90;10.50;98517.00;;;;347609;28;83353;-91
2023/01/09 00:55:58;;;;;;;;;;;10.10;99.90;10.50;98520.00;;;;345381;28;95308;-91
2023/01/09 00:56:13;;;;;;;;;;;10.00;99.90;10.50;98515.00;;;;347556;27;82513;-91
2023/01/09 00:56:25;;;;;;;;;;;10.00;99.90;10.50;98514.00;;;;346721;28;97613;-91
2023/01/09 00:56:37;;;;;;;;;;;10.10;99.90;10.50;98511.00;;;;346215;28;83495;-91
2023/01/09 00:56:48;;;;;;;;;;;10.00;99.90;10.50;98524.00;;;;345421;28;96459;-91
2023/01/09 00:57:00;;;;;;;;;;;10.00;99.90;10.60;98519.00;;;;347575;28;83411;-91
2023/01/09 00:57:12;;;;;;;;;;;10.00;99.90;10.60;98522.00;;;;344004;28;93965;-91
2023/01/09 00:57:24;;;;;;;;;;;10.10;99.90;10.60;98519.00;;;;347574;28;82535;-91
2023/01/09 00:57:35;;;;;;;;;;;10.10;99.90;10.60;98522.00;;;;344061;28;97484;-91
2023/01/09 00:57:47;;;;;;;;;;;10.10;99.90;10.60;98518.00;;;;347392;28;83166;-91
2023/01/09 00:57:59;;;;;;;;;;;10.10;99.90;10.60;98520.00;;;;346606;28;96425;-92
2023/01/09 00:58:11;;;;;;;;;;;10.10;99.90;10.60;98519.00;;;;348984;27;83410;-91
2023/01/09 00:58:23;;;;;;;;;;;10.10;99.90;10.50;98518.00;;;;346667;28;97696;-91
2023/01/09 00:58:34;;;;;;;;;;;10.10;99.90;10.50;98521.00;;;;346116;28;83439;-91
2023/01/09 00:58:46;;;;;;;;;;;10.10;99.90;10.50;98519.00;;;;348074;27;96457;-91
2023/01/09 00:58:58;;;;;;;;;;;10.10;99.90;10.50;98527.00;;;;347537;28;83488;-92
2023/01/09 00:59:10;;;;;;;;;;;10.10;99.90;10.50;98523.00;;;;345490;28;94956;-91
2023/01/09 00:59:21;;;;;;;;;;;10.10;99.90;10.50;98527.00;;;;347562;28;83018;-91
2023/01/09 00:59:33;;;;;;;;;;;10.00;99.90;10.50;98513.00;;;;346747;28;96399;-91
2023/01/09 00:59:45;;;;;;;;;;;10.00;99.90;10.50;98522.00;;;;348909;27;82364;-91
2023/01/09 00:59:57;;;;;;;;;;;10.10;99.90;10.50;98519.00;;;;346686;28;96632;-92
2023/01/09 01:00:09;;;;;;;;;;;10.00;99.90;10.50;98518.00;;;;346077;28;83515;-90
2023/01/09 01:00:21;;;;;;;;;;;10.00;99.90;10.60;98523.00;;;;346703;28;96260;-91
2023/01/09 01:00:33;;;;;;;;;;;10.00;99.90;10.50;98523.00;;;;346145;28;83537;-91
2023/01/09 01:00:45;;;;;;;;;;;10.10;99.90;10.50;98519.00;;;;348063;27;96381;-91
2023/01/09 01:00:56;;;;;;;;;;;10.10;99.90;10.50;98520.00;;;;345971;28;82500;-91
2023/01/09 01:01:08;;;;;;;;;;;10.00;99.90;10.60;98517.00;;;;345410;28;96641;-91
2023/01/09 01:01:20;;;;;;;;;;;10.10;99.90;10.60;98514.00;;;;346153;28;82527;-92
2023/01/09 01:01:32;;;;;;;;;;;10.00;99.90;10.50;98518.00;;;;346769;28;94325;-91
2023/01/09 01:01:44;;;;;;;;;;;10.00;99.90;10.50;98519.00;;;;347520;28;83371;-92
2023/01/09 01:01:56;;;;;;;;;;;10.00;99.90;10.50;98521.00;;;;345297;28;96836;-91